sensor_id;sensor_type;location;lat;lon;timestamp;P1;durP1;ratioP1;P2;durP2;ratioP2
1507;SDS011;745;48.586;10.032;2023-04-03T00:03:50;6.33;;;5.53;;
1507;SDS011;745;48.586;10.032;2023-04-03T00:08:21;6.50;;;5.73;;
1507;SDS011;745;48.586;10.032;2023-04-03T00:12:52;6.70;;;5.57;;
1507;SDS011;745;48.586;10.032;2023-04-03T00:17:22;5.63;;;5.10;;
1507;SDS011;745;48.586;10.032;2023-04-03T00:21:53;5.47;;;4.90;;
1507;SDS011;745;48.586;10.032;2023-04-03T00:26:23;6.03;;;5.43;;
1507;SDS011;745;48.586;10.032;2023-04-03T00:30:54;5.93;;;5.27;;
1507;SDS011;745;48.586;10.032;2023-04-03T00:35:24;6.00;;;5.03;;
1507;SDS011;745;48.586;10.032;2023-04-03T00:39:55;5.20;;;4.70;;
1507;SDS011;745;48.586;10.032;2023-04-03T00:48:58;4.73;;;4.33;;
1507;SDS011;745;48.586;10.032;2023-04-03T00:53:33;5.90;;;5.23;;
1507;SDS011;745;48.586;10.032;2023-04-03T00:58:07;5.80;;;5.30;;
1507;SDS011;745;48.586;10.032;2023-04-03T01:02:38;5.27;;;4.77;;
1507;SDS011;745;48.586;10.032;2023-04-03T01:07:12;6.90;;;5.30;;
1507;SDS011;745;48.586;10.032;2023-04-03T01:11:47;5.47;;;4.87;;
1507;SDS011;745;48.586;10.032;2023-04-03T01:16:18;6.10;;;5.50;;
1507;SDS011;745;48.586;10.032;2023-04-03T01:25:25;6.03;;;5.27;;
1507;SDS011;745;48.586;10.032;2023-04-03T01:29:56;6.30;;;5.00;;
1507;SDS011;745;48.586;10.032;2023-04-03T01:34:27;6.47;;;5.10;;
1507;SDS011;745;48.586;10.032;2023-04-03T01:38:58;6.20;;;5.20;;
1507;SDS011;745;48.586;10.032;2023-04-03T01:43:29;8.90;;;5.50;;
1507;SDS011;745;48.586;10.032;2023-04-03T01:48:00;6.50;;;5.70;;
1507;SDS011;745;48.586;10.032;2023-04-03T01:52:30;5.90;;;5.23;;
1507;SDS011;745;48.586;10.032;2023-04-03T01:57:00;6.10;;;5.47;;
1507;SDS011;745;48.586;10.032;2023-04-03T02:01:31;5.70;;;5.20;;
1507;SDS011;745;48.586;10.032;2023-04-03T02:06:01;5.10;;;4.60;;
1507;SDS011;745;48.586;10.032;2023-04-03T02:10:32;5.40;;;4.87;;
1507;SDS011;745;48.586;10.032;2023-04-03T02:15:02;5.73;;;5.23;;
1507;SDS011;745;48.586;10.032;2023-04-03T02:19:33;5.93;;;5.17;;
1507;SDS011;745;48.586;10.032;2023-04-03T02:24:03;6.57;;;5.63;;
1507;SDS011;745;48.586;10.032;2023-04-03T02:28:34;7.80;;;4.63;;
1507;SDS011;745;48.586;10.032;2023-04-03T02:33:04;6.70;;;5.50;;
1507;SDS011;745;48.586;10.032;2023-04-03T02:37:35;5.97;;;5.20;;
1507;SDS011;745;48.586;10.032;2023-04-03T02:42:05;6.10;;;4.50;;
1507;SDS011;745;48.586;10.032;2023-04-03T02:46:36;4.10;;;3.70;;
1507;SDS011;745;48.586;10.032;2023-04-03T02:51:06;4.67;;;3.43;;
1507;SDS011;745;48.586;10.032;2023-04-03T02:55:36;3.90;;;3.50;;
1507;SDS011;745;48.586;10.032;2023-04-03T03:00:07;3.83;;;3.43;;
1507;SDS011;745;48.586;10.032;2023-04-03T03:04:38;4.77;;;3.53;;
1507;SDS011;745;48.586;10.032;2023-04-03T03:09:09;3.80;;;3.30;;
1507;SDS011;745;48.586;10.032;2023-04-03T03:13:39;3.83;;;3.43;;
1507;SDS011;745;48.586;10.032;2023-04-03T03:18:09;4.60;;;4.20;;
1507;SDS011;745;48.586;10.032;2023-04-03T03:22:40;4.00;;;3.40;;
1507;SDS011;745;48.586;10.032;2023-04-03T03:27:10;4.50;;;3.70;;
1507;SDS011;745;48.586;10.032;2023-04-03T03:31:42;3.50;;;3.20;;
1507;SDS011;745;48.586;10.032;2023-04-03T03:36:12;4.40;;;3.57;;
1507;SDS011;745;48.586;10.032;2023-04-03T03:40:42;2.97;;;2.77;;
1507;SDS011;745;48.586;10.032;2023-04-03T03:45:13;3.80;;;3.33;;
1507;SDS011;745;48.586;10.032;2023-04-03T03:49:43;3.90;;;3.00;;
1507;SDS011;745;48.586;10.032;2023-04-03T03:54:14;3.90;;;3.60;;
1507;SDS011;745;48.586;10.032;2023-04-03T03:58:44;3.40;;;3.10;;
1507;SDS011;745;48.586;10.032;2023-04-03T04:03:15;3.33;;;3.03;;
1507;SDS011;745;48.586;10.032;2023-04-03T04:07:45;3.90;;;3.50;;
1507;SDS011;745;48.586;10.032;2023-04-03T04:12:15;3.70;;;3.40;;
1507;SDS011;745;48.586;10.032;2023-04-03T04:16:46;4.00;;;3.60;;
1507;SDS011;745;48.586;10.032;2023-04-03T04:21:17;3.73;;;3.33;;
1507;SDS011;745;48.586;10.032;2023-04-03T04:25:48;4.07;;;3.67;;
1507;SDS011;745;48.586;10.032;2023-04-03T04:30:20;3.40;;;3.10;;
1507;SDS011;745;48.586;10.032;2023-04-03T04:34:50;4.77;;;3.47;;
1507;SDS011;745;48.586;10.032;2023-04-03T04:39:20;6.00;;;3.87;;
1507;SDS011;745;48.586;10.032;2023-04-03T04:43:51;4.23;;;3.83;;
1507;SDS011;745;48.586;10.032;2023-04-03T04:48:21;4.37;;;3.70;;
1507;SDS011;745;48.586;10.032;2023-04-03T04:52:52;3.47;;;3.17;;
1507;SDS011;745;48.586;10.032;2023-04-03T04:57:22;3.10;;;2.90;;
1507;SDS011;745;48.586;10.032;2023-04-03T05:01:52;4.53;;;4.00;;
1507;SDS011;745;48.586;10.032;2023-04-03T05:06:23;3.90;;;3.60;;
1507;SDS011;745;48.586;10.032;2023-04-03T05:10:53;4.17;;;3.10;;
1507;SDS011;745;48.586;10.032;2023-04-03T05:15:24;5.50;;;4.33;;
1507;SDS011;745;48.586;10.032;2023-04-03T05:19:54;5.17;;;3.67;;
1507;SDS011;745;48.586;10.032;2023-04-03T05:24:24;3.83;;;3.53;;
1507;SDS011;745;48.586;10.032;2023-04-03T05:28:56;4.40;;;4.00;;
1507;SDS011;745;48.586;10.032;2023-04-03T05:33:26;3.90;;;3.60;;
1507;SDS011;745;48.586;10.032;2023-04-03T05:37:56;4.47;;;3.67;;
1507;SDS011;745;48.586;10.032;2023-04-03T05:42:27;4.53;;;3.70;;
1507;SDS011;745;48.586;10.032;2023-04-03T05:46:57;4.63;;;3.37;;
1507;SDS011;745;48.586;10.032;2023-04-03T05:51:29;4.60;;;4.00;;
1507;SDS011;745;48.586;10.032;2023-04-03T05:56:03;4.50;;;3.93;;
1507;SDS011;745;48.586;10.032;2023-04-03T06:00:33;4.80;;;3.87;;
1507;SDS011;745;48.586;10.032;2023-04-03T06:05:04;3.57;;;3.27;;
1507;SDS011;745;48.586;10.032;2023-04-03T06:09:35;4.73;;;3.40;;
1507;SDS011;745;48.586;10.032;2023-04-03T06:14:06;4.37;;;3.97;;
1507;SDS011;745;48.586;10.032;2023-04-03T06:18:36;4.50;;;4.10;;
1507;SDS011;745;48.586;10.032;2023-04-03T06:23:07;4.93;;;3.97;;
1507;SDS011;745;48.586;10.032;2023-04-03T06:27:37;3.83;;;3.53;;
1507;SDS011;745;48.586;10.032;2023-04-03T06:32:08;4.50;;;4.10;;
1507;SDS011;745;48.586;10.032;2023-04-03T06:36:39;3.87;;;3.43;;
1507;SDS011;745;48.586;10.032;2023-04-03T06:41:10;3.87;;;3.40;;
1507;SDS011;745;48.586;10.032;2023-04-03T06:45:40;4.60;;;3.60;;
1507;SDS011;745;48.586;10.032;2023-04-03T06:50:11;3.67;;;3.37;;
1507;SDS011;745;48.586;10.032;2023-04-03T06:54:43;3.70;;;3.40;;
1507;SDS011;745;48.586;10.032;2023-04-03T06:59:14;3.77;;;3.47;;
1507;SDS011;745;48.586;10.032;2023-04-03T07:03:45;3.50;;;3.20;;
1507;SDS011;745;48.586;10.032;2023-04-03T07:08:16;4.10;;;3.40;;
1507;SDS011;745;48.586;10.032;2023-04-03T07:12:46;3.30;;;3.00;;
1507;SDS011;745;48.586;10.032;2023-04-03T07:17:17;4.00;;;3.57;;
1507;SDS011;745;48.586;10.032;2023-04-03T07:21:47;3.73;;;3.43;;
1507;SDS011;745;48.586;10.032;2023-04-03T07:26:18;4.20;;;3.50;;
1507;SDS011;745;48.586;10.032;2023-04-03T07:30:49;3.60;;;3.30;;
1507;SDS011;745;48.586;10.032;2023-04-03T07:35:21;3.00;;;2.80;;
1507;SDS011;745;48.586;10.032;2023-04-03T07:39:52;10.67;;;9.67;;
1507;SDS011;745;48.586;10.032;2023-04-03T07:44:22;7.07;;;6.40;;
1507;SDS011;745;48.586;10.032;2023-04-03T07:48:53;3.80;;;3.50;;
1507;SDS011;745;48.586;10.032;2023-04-03T07:53:23;5.07;;;4.33;;
1507;SDS011;745;48.586;10.032;2023-04-03T07:57:54;4.00;;;3.53;;
1507;SDS011;745;48.586;10.032;2023-04-03T08:02:25;4.10;;;3.70;;
1507;SDS011;745;48.586;10.032;2023-04-03T08:06:56;4.93;;;4.03;;
1507;SDS011;745;48.586;10.032;2023-04-03T08:11:27;5.23;;;3.60;;
1507;SDS011;745;48.586;10.032;2023-04-03T08:15:58;5.87;;;5.27;;
1507;SDS011;745;48.586;10.032;2023-04-03T08:20:29;5.80;;;4.63;;
1507;SDS011;745;48.586;10.032;2023-04-03T08:24:59;4.27;;;3.87;;
1507;SDS011;745;48.586;10.032;2023-04-03T08:29:30;4.97;;;4.47;;
1507;SDS011;745;48.586;10.032;2023-04-03T08:34:01;5.40;;;4.40;;
1507;SDS011;745;48.586;10.032;2023-04-03T08:38:31;5.33;;;4.83;;
1507;SDS011;745;48.586;10.032;2023-04-03T08:52:33;7.17;;;4.70;;
1507;SDS011;745;48.586;10.032;2023-04-03T08:57:04;4.70;;;4.03;;
1507;SDS011;745;48.586;10.032;2023-04-03T09:01:39;5.57;;;4.10;;
1507;SDS011;745;48.586;10.032;2023-04-03T09:06:12;4.90;;;4.50;;
1507;SDS011;745;48.586;10.032;2023-04-03T09:21:14;4.60;;;3.70;;
1507;SDS011;745;48.586;10.032;2023-04-03T09:25:47;5.80;;;4.17;;
1507;SDS011;745;48.586;10.032;2023-04-03T09:30:20;4.50;;;4.10;;
1507;SDS011;745;48.586;10.032;2023-04-03T09:34:52;6.57;;;5.30;;
1507;SDS011;745;48.586;10.032;2023-04-03T09:43:57;5.63;;;4.47;;
1507;SDS011;745;48.586;10.032;2023-04-03T09:48:27;3.73;;;3.40;;
1507;SDS011;745;48.586;10.032;2023-04-03T09:52:58;3.80;;;3.30;;
1507;SDS011;745;48.586;10.032;2023-04-03T09:57:31;4.00;;;3.30;;
1507;SDS011;745;48.586;10.032;2023-04-03T10:02:03;4.27;;;3.17;;
1507;SDS011;745;48.586;10.032;2023-04-03T10:06:50;4.30;;;3.90;;
1507;SDS011;745;48.586;10.032;2023-04-03T10:11:21;4.53;;;3.60;;
1507;SDS011;745;48.586;10.032;2023-04-03T10:15:59;4.10;;;3.80;;
1507;SDS011;745;48.586;10.032;2023-04-03T10:20:40;4.23;;;3.27;;
1507;SDS011;745;48.586;10.032;2023-04-03T10:34:54;4.23;;;3.50;;
1507;SDS011;745;48.586;10.032;2023-04-03T10:49:10;3.97;;;3.60;;
1507;SDS011;745;48.586;10.032;2023-04-03T10:53:52;3.73;;;3.37;;
1507;SDS011;745;48.586;10.032;2023-04-03T10:58:32;3.60;;;3.00;;
1507;SDS011;745;48.586;10.032;2023-04-03T11:07:57;5.70;;;3.80;;
1507;SDS011;745;48.586;10.032;2023-04-03T11:12:36;4.13;;;3.70;;
1507;SDS011;745;48.586;10.032;2023-04-03T11:21:46;4.20;;;3.80;;
1507;SDS011;745;48.586;10.032;2023-04-03T11:26:19;3.80;;;3.43;;
1507;SDS011;745;48.586;10.032;2023-04-03T11:35:32;3.53;;;3.00;;
1507;SDS011;745;48.586;10.032;2023-04-03T11:40:05;3.80;;;3.40;;
1507;SDS011;745;48.586;10.032;2023-04-03T11:44:39;6.07;;;4.07;;
1507;SDS011;745;48.586;10.032;2023-04-03T11:55:35;4.77;;;3.30;;
1507;SDS011;745;48.586;10.032;2023-04-03T12:08:15;4.80;;;3.30;;
1507;SDS011;745;48.586;10.032;2023-04-03T12:12:57;3.57;;;3.20;;
1507;SDS011;745;48.586;10.032;2023-04-03T12:17:29;3.40;;;3.10;;
1507;SDS011;745;48.586;10.032;2023-04-03T12:31:31;4.07;;;3.07;;
1507;SDS011;745;48.586;10.032;2023-04-03T12:36:07;4.20;;;3.80;;
1507;SDS011;745;48.586;10.032;2023-04-03T12:40:49;3.20;;;2.93;;
1507;SDS011;745;48.586;10.032;2023-04-03T12:45:23;3.40;;;3.00;;
1507;SDS011;745;48.586;10.032;2023-04-03T12:49:55;4.60;;;3.63;;
1507;SDS011;745;48.586;10.032;2023-04-03T12:54:35;3.80;;;3.50;;
1507;SDS011;745;48.586;10.032;2023-04-03T12:59:16;3.70;;;3.40;;
1507;SDS011;745;48.586;10.032;2023-04-03T13:03:57;3.13;;;2.83;;
1507;SDS011;745;48.586;10.032;2023-04-03T13:08:28;3.10;;;2.90;;
1507;SDS011;745;48.586;10.032;2023-04-03T13:13:06;3.20;;;3.00;;
1507;SDS011;745;48.586;10.032;2023-04-03T13:17:39;3.93;;;3.53;;
1507;SDS011;745;48.586;10.032;2023-04-03T13:22:18;3.67;;;3.37;;
1507;SDS011;745;48.586;10.032;2023-04-03T13:26:57;8.23;;;3.63;;
1507;SDS011;745;48.586;10.032;2023-04-03T13:31:28;4.83;;;2.93;;
1507;SDS011;745;48.586;10.032;2023-04-03T13:36:04;3.60;;;3.00;;
1507;SDS011;745;48.586;10.032;2023-04-03T13:40:46;3.10;;;2.80;;
1507;SDS011;745;48.586;10.032;2023-04-03T13:45:25;4.67;;;3.20;;
1507;SDS011;745;48.586;10.032;2023-04-03T13:50:31;3.00;;;2.63;;
1507;SDS011;745;48.586;10.032;2023-04-03T13:54:59;4.30;;;2.90;;
1507;SDS011;745;48.586;10.032;2023-04-03T13:59:33;3.53;;;3.23;;
1507;SDS011;745;48.586;10.032;2023-04-03T14:04:10;3.53;;;3.27;;
1507;SDS011;745;48.586;10.032;2023-04-03T14:08:45;5.03;;;3.67;;
1507;SDS011;745;48.586;10.032;2023-04-03T14:13:17;5.73;;;4.97;;
1507;SDS011;745;48.586;10.032;2023-04-03T14:17:50;3.70;;;3.40;;
1507;SDS011;745;48.586;10.032;2023-04-03T14:22:22;3.10;;;2.83;;
1507;SDS011;745;48.586;10.032;2023-04-03T14:26:55;3.80;;;3.50;;
1507;SDS011;745;48.586;10.032;2023-04-03T14:31:25;4.73;;;3.47;;
1507;SDS011;745;48.586;10.032;2023-04-03T14:35:56;3.57;;;3.10;;
1507;SDS011;745;48.586;10.032;2023-04-03T14:40:27;2.87;;;2.57;;
1507;SDS011;745;48.586;10.032;2023-04-03T14:44:58;5.33;;;3.20;;
1507;SDS011;745;48.586;10.032;2023-04-03T14:49:29;2.90;;;2.60;;
1507;SDS011;745;48.586;10.032;2023-04-03T14:54:00;3.40;;;3.10;;
1507;SDS011;745;48.586;10.032;2023-04-03T14:58:30;3.00;;;2.70;;
1507;SDS011;745;48.586;10.032;2023-04-03T15:03:02;3.10;;;2.80;;
1507;SDS011;745;48.586;10.032;2023-04-03T15:07:33;3.23;;;2.40;;
1507;SDS011;745;48.586;10.032;2023-04-03T15:12:05;3.63;;;2.70;;
1507;SDS011;745;48.586;10.032;2023-04-03T15:16:37;3.23;;;2.93;;
1507;SDS011;745;48.586;10.032;2023-04-03T15:21:08;3.00;;;2.50;;
1507;SDS011;745;48.586;10.032;2023-04-03T15:25:38;3.03;;;2.40;;
1507;SDS011;745;48.586;10.032;2023-04-03T15:30:13;3.20;;;2.90;;
1507;SDS011;745;48.586;10.032;2023-04-03T15:34:46;4.27;;;2.90;;
1507;SDS011;745;48.586;10.032;2023-04-03T15:39:16;2.77;;;2.50;;
1507;SDS011;745;48.586;10.032;2023-04-03T15:43:47;2.90;;;2.70;;
1507;SDS011;745;48.586;10.032;2023-04-03T15:48:17;2.90;;;2.70;;
1507;SDS011;745;48.586;10.032;2023-04-03T15:52:48;2.67;;;2.47;;
1507;SDS011;745;48.586;10.032;2023-04-03T15:57:21;3.37;;;3.07;;
1507;SDS011;745;48.586;10.032;2023-04-03T16:01:56;3.07;;;2.77;;
1507;SDS011;745;48.586;10.032;2023-04-03T16:06:26;3.57;;;2.47;;
1507;SDS011;745;48.586;10.032;2023-04-03T16:10:59;3.10;;;2.90;;
1507;SDS011;745;48.586;10.032;2023-04-03T16:15:30;4.07;;;3.00;;
1507;SDS011;745;48.586;10.032;2023-04-03T16:20:00;3.20;;;2.87;;
1507;SDS011;745;48.586;10.032;2023-04-03T16:24:31;3.20;;;2.50;;
1507;SDS011;745;48.586;10.032;2023-04-03T16:29:02;2.50;;;2.30;;
1507;SDS011;745;48.586;10.032;2023-04-03T16:33:32;3.03;;;2.80;;
1507;SDS011;745;48.586;10.032;2023-04-03T16:38:03;5.50;;;3.30;;
1507;SDS011;745;48.586;10.032;2023-04-03T16:42:34;2.80;;;2.60;;
1507;SDS011;745;48.586;10.032;2023-04-03T16:47:04;3.00;;;2.70;;
1507;SDS011;745;48.586;10.032;2023-04-03T16:51:34;3.13;;;2.57;;
1507;SDS011;745;48.586;10.032;2023-04-03T16:56:05;3.33;;;2.67;;
1507;SDS011;745;48.586;10.032;2023-04-03T17:00:35;3.13;;;2.43;;
1507;SDS011;745;48.586;10.032;2023-04-03T17:05:06;3.17;;;2.77;;
1507;SDS011;745;48.586;10.032;2023-04-03T17:09:37;2.40;;;2.20;;
1507;SDS011;745;48.586;10.032;2023-04-03T17:14:08;2.70;;;2.50;;
1507;SDS011;745;48.586;10.032;2023-04-03T17:18:38;4.43;;;2.40;;
1507;SDS011;745;48.586;10.032;2023-04-03T17:23:09;3.10;;;2.53;;
1507;SDS011;745;48.586;10.032;2023-04-03T17:27:39;2.40;;;2.20;;
1507;SDS011;745;48.586;10.032;2023-04-03T17:32:10;2.80;;;2.60;;
1507;SDS011;745;48.586;10.032;2023-04-03T17:36:40;2.63;;;2.43;;
1507;SDS011;745;48.586;10.032;2023-04-03T17:41:11;2.50;;;2.30;;
1507;SDS011;745;48.586;10.032;2023-04-03T17:45:41;2.50;;;2.30;;
1507;SDS011;745;48.586;10.032;2023-04-03T17:50:11;2.20;;;2.10;;
1507;SDS011;745;48.586;10.032;2023-04-03T17:54:45;2.90;;;2.57;;
1507;SDS011;745;48.586;10.032;2023-04-03T17:59:15;3.70;;;2.53;;
1507;SDS011;745;48.586;10.032;2023-04-03T18:03:46;2.80;;;2.13;;
1507;SDS011;745;48.586;10.032;2023-04-03T18:08:17;2.90;;;2.57;;
1507;SDS011;745;48.586;10.032;2023-04-03T18:12:48;3.10;;;2.80;;
1507;SDS011;745;48.586;10.032;2023-04-03T18:17:18;3.57;;;2.83;;
1507;SDS011;745;48.586;10.032;2023-04-03T18:21:49;2.70;;;2.50;;
1507;SDS011;745;48.586;10.032;2023-04-03T18:26:21;3.03;;;2.50;;
1507;SDS011;745;48.586;10.032;2023-04-03T18:30:55;4.80;;;3.37;;
1507;SDS011;745;48.586;10.032;2023-04-03T18:35:26;3.23;;;2.93;;
1507;SDS011;745;48.586;10.032;2023-04-03T18:39:56;4.33;;;3.17;;
1507;SDS011;745;48.586;10.032;2023-04-03T18:44:26;4.73;;;3.10;;
1507;SDS011;745;48.586;10.032;2023-04-03T18:48:58;3.90;;;3.10;;
1507;SDS011;745;48.586;10.032;2023-04-03T18:53:28;5.80;;;3.60;;
1507;SDS011;745;48.586;10.032;2023-04-03T18:57:59;4.77;;;3.20;;
1507;SDS011;745;48.586;10.032;2023-04-03T19:02:29;6.63;;;3.57;;
1507;SDS011;745;48.586;10.032;2023-04-03T19:07:00;3.10;;;2.80;;
1507;SDS011;745;48.586;10.032;2023-04-03T19:11:34;4.47;;;2.70;;
1507;SDS011;745;48.586;10.032;2023-04-03T19:16:05;3.93;;;3.50;;
1507;SDS011;745;48.586;10.032;2023-04-03T19:20:36;3.13;;;2.83;;
1507;SDS011;745;48.586;10.032;2023-04-03T19:25:07;3.10;;;2.90;;
1507;SDS011;745;48.586;10.032;2023-04-03T19:29:39;5.20;;;3.10;;
1507;SDS011;745;48.586;10.032;2023-04-03T19:34:09;3.30;;;3.00;;
1507;SDS011;745;48.586;10.032;2023-04-03T19:38:39;6.03;;;3.57;;
1507;SDS011;745;48.586;10.032;2023-04-03T19:43:11;4.33;;;3.33;;
1507;SDS011;745;48.586;10.032;2023-04-03T19:47:42;3.53;;;3.23;;
1507;SDS011;745;48.586;10.032;2023-04-03T19:52:13;4.43;;;3.13;;
1507;SDS011;745;48.586;10.032;2023-04-03T19:56:44;3.70;;;3.10;;
1507;SDS011;745;48.586;10.032;2023-04-03T20:01:15;4.73;;;3.30;;
1507;SDS011;745;48.586;10.032;2023-04-03T20:05:45;3.67;;;3.37;;
1507;SDS011;745;48.586;10.032;2023-04-03T20:10:16;3.20;;;2.90;;
1507;SDS011;745;48.586;10.032;2023-04-03T20:14:47;3.40;;;3.10;;
1507;SDS011;745;48.586;10.032;2023-04-03T20:19:17;4.50;;;2.97;;
1507;SDS011;745;48.586;10.032;2023-04-03T20:23:48;6.10;;;2.77;;
1507;SDS011;745;48.586;10.032;2023-04-03T20:28:20;2.40;;;2.20;;
1507;SDS011;745;48.586;10.032;2023-04-03T20:32:51;3.33;;;2.43;;
1507;SDS011;745;48.586;10.032;2023-04-03T20:37:22;7.20;;;2.80;;
1507;SDS011;745;48.586;10.032;2023-04-03T20:41:53;6.20;;;2.80;;
1507;SDS011;745;48.586;10.032;2023-04-03T20:46:23;4.53;;;2.60;;
1507;SDS011;745;48.586;10.032;2023-04-03T20:50:57;4.30;;;2.93;;
1507;SDS011;745;48.586;10.032;2023-04-03T20:55:28;4.10;;;3.00;;
1507;SDS011;745;48.586;10.032;2023-04-03T20:59:58;3.83;;;2.67;;
1507;SDS011;745;48.586;10.032;2023-04-03T21:04:33;3.77;;;3.40;;
1507;SDS011;745;48.586;10.032;2023-04-03T21:19:21;3.20;;;2.90;;
1507;SDS011;745;48.586;10.032;2023-04-03T21:23:52;4.80;;;3.30;;
1507;SDS011;745;48.586;10.032;2023-04-03T21:28:23;4.80;;;3.27;;
1507;SDS011;745;48.586;10.032;2023-04-03T21:32:54;3.40;;;2.87;;
1507;SDS011;745;48.586;10.032;2023-04-03T21:37:24;4.03;;;3.60;;
1507;SDS011;745;48.586;10.032;2023-04-03T21:41:55;3.63;;;2.93;;
1507;SDS011;745;48.586;10.032;2023-04-03T21:46:25;3.77;;;3.20;;
1507;SDS011;745;48.586;10.032;2023-04-03T21:51:03;5.10;;;3.23;;
1507;SDS011;745;48.586;10.032;2023-04-03T21:55:34;6.10;;;3.20;;
1507;SDS011;745;48.586;10.032;2023-04-03T22:00:05;3.40;;;2.83;;
1507;SDS011;745;48.586;10.032;2023-04-03T22:04:36;3.80;;;3.00;;
1507;SDS011;745;48.586;10.032;2023-04-03T22:09:06;3.13;;;2.93;;
1507;SDS011;745;48.586;10.032;2023-04-03T22:13:37;3.70;;;2.97;;
1507;SDS011;745;48.586;10.032;2023-04-03T22:18:08;5.43;;;3.10;;
1507;SDS011;745;48.586;10.032;2023-04-03T22:22:39;3.30;;;3.00;;
1507;SDS011;745;48.586;10.032;2023-04-03T22:27:10;3.20;;;2.90;;
1507;SDS011;745;48.586;10.032;2023-04-03T22:31:42;3.30;;;3.00;;
1507;SDS011;745;48.586;10.032;2023-04-03T22:36:12;8.03;;;3.70;;
1507;SDS011;745;48.586;10.032;2023-04-03T22:40:43;4.13;;;3.50;;
1507;SDS011;745;48.586;10.032;2023-04-03T22:45:14;3.73;;;3.43;;
1507;SDS011;745;48.586;10.032;2023-04-03T22:49:45;3.57;;;3.20;;
1507;SDS011;745;48.586;10.032;2023-04-03T22:54:15;4.13;;;3.33;;
1507;SDS011;745;48.586;10.032;2023-04-03T22:58:46;3.90;;;3.50;;
1507;SDS011;745;48.586;10.032;2023-04-03T23:03:17;6.20;;;3.20;;
1507;SDS011;745;48.586;10.032;2023-04-03T23:07:48;3.17;;;2.97;;
1507;SDS011;745;48.586;10.032;2023-04-03T23:12:18;3.30;;;3.00;;
1507;SDS011;745;48.586;10.032;2023-04-03T23:16:49;3.37;;;3.07;;
1507;SDS011;745;48.586;10.032;2023-04-03T23:21:19;6.13;;;3.20;;
1507;SDS011;745;48.586;10.032;2023-04-03T23:25:50;4.20;;;3.73;;
1507;SDS011;745;48.586;10.032;2023-04-03T23:30:24;3.80;;;3.40;;
1507;SDS011;745;48.586;10.032;2023-04-03T23:34:54;5.63;;;3.47;;
1507;SDS011;745;48.586;10.032;2023-04-03T23:39:24;4.13;;;3.57;;
1507;SDS011;745;48.586;10.032;2023-04-03T23:43:55;6.27;;;3.47;;
1507;SDS011;745;48.586;10.032;2023-04-03T23:48:25;3.60;;;3.23;;
1507;SDS011;745;48.586;10.032;2023-04-03T23:52:56;3.30;;;2.97;;
1507;SDS011;745;48.586;10.032;2023-04-03T23:57:26;3.97;;;3.40;;
